Fox Island, Washington
Current Conditions -  °F | °C
As of 11:53 AM on Saturday 25 Oct 2014 (Local Time) from KTIW Reporting Station
Overcast Overcast  
Wind Chill: 13°   Ceiling: 9500
Heat Index: 13°   Visibility: 10mi
Dew Point: 11°   Wind: 9mph
Humidity: 86%   Direction: 360°N
Pressure: 29.38"   Gusts: NA
Location:  47.25°N, 122.63°W
Report Text: KTIW 251853Z 36008KT 10SM FEW008 OVC095 13/11 A2938 RMK AO2 RAB20E30 SLP950 P0000 T01280106
Loading
Personal Weather Stations






























Interactive Weather Map
Tropical Storm Tracking
New forecast layout! Learn more

10-Day Weather Forecast

Advertisements
Track Severe Weather on mobile